Terminal Aerodrome Forecast
Issued by NWS

Home | Current Version | Previous Version | Text Only | Print | Product List | Glossary On
Versions: 1 2 3 4 5 6 7 8 9 10 11 12
566
FTUS42 TJSJ 291749
TAFNCM
TAF
TNCM 291749Z 2918/3018 03007KT P6SM SCT018 SCT035
      TEMPO 2918/2922 3SM +SHRA BKN015 OVC060
     FM292300 05007KT P6SM FEW018=

USA.gov is the U.S. government's official web portal to all federal, state and local government web resources and services.